PAMC

McGrath Airport

Airport
ICAO code
PAMC
IATA Code
MCG
Summary
ICAO Region
NAM
ICAO Territory
Location

, Alaska

Serving
Mcgrath
Elevation
341 ft
Coordinates
62° 57' 10" N , 155° 36' 22" W
Metar
PAMC 251753Z 15006KT 10SM FEW040 SCT250 21/17 A2992 RMK AO2 SLP134 60000 T02060167 10206 20189 58006

Runways

Designator Length Width Surface Rops
5/23 610 18 GRVL-G No/No
16/34 1809 30 ASPH-G Yes/Yes

Airport map

Aerial View

SKYbrary Partners:

Safety knowledge contributed by: